createdAt,value
2023-03-07T00:03:44.506Z,12.40
2023-03-07T00:18:46.871Z,9.90
2023-03-07T00:33:49.403Z,8.53
2023-03-07T00:48:52.230Z,7.23
2023-03-07T01:03:55.958Z,6.80
2023-03-07T01:19:02.126Z,5.87
2023-03-07T01:34:05.079Z,6.37
2023-03-07T01:49:29.525Z,7.17
2023-03-07T02:05:01.219Z,7.77
2023-03-07T02:20:28.323Z,8.93
2023-03-07T02:35:30.897Z,7.73
2023-03-07T02:50:36.850Z,8.33
2023-03-07T03:05:40.656Z,7.83
2023-03-07T03:20:43.234Z,7.30
2023-03-07T03:35:46.724Z,9.50
2023-03-07T03:50:49.589Z,9.87
2023-03-07T04:05:52.077Z,10.17
2023-03-07T04:20:54.564Z,11.20
2023-03-07T04:35:57.117Z,9.77
2023-03-07T04:50:59.830Z,10.90
2023-03-07T05:06:08.323Z,9.90
2023-03-07T05:21:10.814Z,13.50
2023-03-07T05:36:15.176Z,11.87
2023-03-07T05:51:17.839Z,12.23
2023-03-07T06:06:20.353Z,10.70
2023-03-07T06:21:23.476Z,13.97
2023-03-07T06:36:26.301Z,13.23
2023-03-07T06:51:32.540Z,11.93
2023-03-07T07:06:36.103Z,11.43
2023-03-07T07:21:38.599Z,11.37
2023-03-07T07:36:41.231Z,10.83
2023-03-07T07:51:43.723Z,9.60
2023-03-07T08:06:46.390Z,9.77
2023-03-07T08:21:48.720Z,9.73
2023-03-07T08:36:52.912Z,9.30
2023-03-07T08:51:55.325Z,9.53
2023-03-07T09:07:00.060Z,11.23
2023-03-07T09:22:03.741Z,12.50
2023-03-07T09:37:06.227Z,11.63
2023-03-07T09:52:15.130Z,10.47
2023-03-07T10:07:20.707Z,10.57
2023-03-07T10:22:52.571Z,10.10
2023-03-07T10:38:05.145Z,10.80
2023-03-07T10:53:26.495Z,10.93
2023-03-07T11:08:35.397Z,12.10
2023-03-07T11:23:37.870Z,10.07
2023-03-07T11:39:00.138Z,10.67
2023-03-07T11:54:21.383Z,11.80
2023-03-07T12:09:33.248Z,13.97
2023-03-07T12:24:40.315Z,12.40
2023-03-07T12:39:59.722Z,12.43
2023-03-07T12:55:27.549Z,11.80
2023-03-07T13:10:30.867Z,10.23
2023-03-07T13:25:56.334Z,5.07
2023-03-07T13:41:05.698Z,5.77
2023-03-07T13:56:17.303Z,5.87
2023-03-07T14:11:40.760Z,6.30
2023-03-07T14:26:46.773Z,8.57
2023-03-07T14:41:55.569Z,5.70
2023-03-07T14:56:59.844Z,5.00
2023-03-07T15:12:12.716Z,5.73
2023-03-07T15:27:22.428Z,7.73
2023-03-07T15:42:25.107Z,12.17
2023-03-07T15:57:47.880Z,9.47
2023-03-07T16:12:50.679Z,34.17
2023-03-07T16:27:58.344Z,22.03
2023-03-07T16:43:01.786Z,33.47
2023-03-07T16:58:05.763Z,18.73
2023-03-07T17:13:12.259Z,23.63
2023-03-07T17:28:15.684Z,9.83
2023-03-07T17:43:18.353Z,11.53
2023-03-07T17:58:20.758Z,10.47
2023-03-07T18:13:24.201Z,13.57
2023-03-07T18:28:27.732Z,12.23
2023-03-07T18:43:30.290Z,10.60
2023-03-07T18:58:37.612Z,11.63
2023-03-07T19:13:41.828Z,10.07
2023-03-07T19:28:48.732Z,7.80
2023-03-07T19:43:51.955Z,4.40
2023-03-07T19:58:56.127Z,4.73
2023-03-07T20:14:05.264Z,5.40
2023-03-07T20:29:09.328Z,4.53
2023-03-07T20:44:19.515Z,5.53
2023-03-07T20:59:22.245Z,7.17
2023-03-07T21:14:26.248Z,5.63
2023-03-07T21:29:28.705Z,4.73
2023-03-07T21:44:31.672Z,5.77
2023-03-07T21:59:34.495Z,6.20
2023-03-07T22:14:36.830Z,5.87
2023-03-07T22:29:39.086Z,6.77
2023-03-07T22:44:41.405Z,6.03
2023-03-07T22:59:43.842Z,5.43
2023-03-07T23:14:46.296Z,4.93
2023-03-07T23:29:48.610Z,4.70
2023-03-07T23:44:50.908Z,5.07
2023-03-07T23:59:53.208Z,4.20
